Map

Track Data

SID SEASON NUMBER BASIN SUBBASIN NAME ISO_TIME NATURE LAT LON WMO_WIND WMO_PRES WMO_AGENCY TRACK_TYPE DIST2LAND LANDFALL IFLAG USA_AGENCY USA_ATCF_ID USA_LAT USA_LON USA_RECORD USA_STATUS USA_WIND USA_PRES USA_SSHS USA_R34_NE USA_R34_SE USA_R34_SW USA_R34_NW USA_R50_NE USA_R50_SE USA_R50_SW USA_R50_NW USA_R64_NE USA_R64_SE USA_R64_SW USA_R64_NW USA_POCI USA_ROCI USA_RMW USA_EYE TOKYO_LAT TOKYO_LON TOKYO_GRADE TOKYO_WIND TOKYO_PRES TOKYO_R50_DIR TOKYO_R50_LONG TOKYO_R50_SHORT TOKYO_R30_DIR TOKYO_R30_LONG TOKYO_R30_SHORT TOKYO_LAND CMA_LAT CMA_LON CMA_CAT CMA_WIND CMA_PRES HKO_LAT HKO_LON HKO_CAT HKO_WIND HKO_PRES NEWDELHI_LAT NEWDELHI_LON NEWDELHI_GRADE NEWDELHI_WIND NEWDELHI_PRES NEWDELHI_CI NEWDELHI_DP NEWDELHI_POCI REUNION_LAT REUNION_LON REUNION_TYPE REUNION_WIND REUNION_PRES REUNION_TNUM REUNION_CI REUNION_RMW REUNION_R34_NE REUNION_R34_SE REUNION_R34_SW REUNION_R34_NW REUNION_R50_NE REUNION_R50_SE REUNION_R50_SW REUNION_R50_NW REUNION_R64_NE REUNION_R64_SE REUNION_R64_SW REUNION_R64_NW BOM_LAT BOM_LON BOM_TYPE BOM_WIND BOM_PRES BOM_TNUM BOM_CI BOM_RMW BOM_R34_NE BOM_R34_SE BOM_R34_SW BOM_R34_NW BOM_R50_NE BOM_R50_SE BOM_R50_SW BOM_R50_NW BOM_R64_NE BOM_R64_SE BOM_R64_SW BOM_R64_NW BOM_ROCI BOM_POCI BOM_EYE BOM_POS_METHOD BOM_PRES_METHOD NADI_LAT NADI_LON NADI_CAT NADI_WIND NADI_PRES WELLINGTON_LAT WELLINGTON_LON WELLINGTON_WIND WELLINGTON_PRES DS824_LAT DS824_LON DS824_STAGE DS824_WIND DS824_PRES TD9636_LAT TD9636_LON TD9636_STAGE TD9636_WIND TD9636_PRES TD9635_LAT TD9635_LON TD9635_WIND TD9635_PRES TD9635_ROCI NEUMANN_LAT NEUMANN_LON NEUMANN_CLASS NEUMANN_WIND NEUMANN_PRES MLC_LAT MLC_LON MLC_CLASS MLC_WIND MLC_PRES USA_GUST BOM_GUST BOM_GUST_PER REUNION_GUST REUNION_GUST_PER USA_SEAHGT USA_SEARAD_NE USA_SEARAD_SE USA_SEARAD_SW USA_SEARAD_NW STORM_SPEED STORM_DIR
1999169N13264 1999 39 EP MM ADRIAN 1999-06-17 18:00:00 NR 13.5000 -96.5000 main 235 235 O_____________ jtwc_ep EP011999 13.5000 -96.5000 25 -1 9 250
1999169N13264 1999 39 EP MM ADRIAN 1999-06-17 21:00:00 NR 13.3527 -96.9151 main 248 248 P_____________ EP011999 13.2876 -96.8928 25 -1 8 249
1999169N13264 1999 39 EP MM ADRIAN 1999-06-18 00:00:00 NR 13.2000 -97.3000 main 279 279 O_____________ jtwc_ep EP011999 13.2000 -97.3000 25 -1 8 247
1999169N13264 1999 39 EP MM ADRIAN 1999-06-18 03:00:00 NR 13.0549 -97.6426 main 299 299 P_____________ EP011999 13.3124 -97.7348 27 -1 7 267
1999169N13264 1999 39 EP MM ADRIAN 1999-06-18 06:00:00 TS 13.1667 -98.0667 30 1006 hurdat_epa main 312 307 O_____________ hurdat_epa EP011999 13.5000 -98.2000 TD 30 1006 -1 9 287
1999169N13264 1999 39 EP MM ADRIAN 1999-06-18 09:00:00 TS 13.3212 -98.5414 main 311 303 P_____________ EP011999 13.5923 -98.6777 TD 30 1005 -1 11 291
1999169N13264 1999 39 EP MM ADRIAN 1999-06-18 12:00:00 TS 13.5400 -99.0800 30 1005 hurdat_epa main 312 296 O_____________ hurdat_epa EP011999 13.7000 -99.2000 TD 30 1005 -1 12 295
1999169N13264 1999 39 EP MM ADRIAN 1999-06-18 15:00:00 TS 13.8415 -99.6908 main 303 292 P_____________ EP011999 13.8773 -99.7701 TD 32 1004 -1 14 297
1999169N13264 1999 39 EP MM ADRIAN 1999-06-18 18:00:00 TS 14.1667 -100.367 35 1004 hurdat_epa main 289 283 O_____________ hurdat_epa EP011999 14.1000 -100.400 TS 35 1004 0 15 294
1999169N13264 1999 39 EP MM ADRIAN 1999-06-18 21:00:00 TS 14.4627 -101.138 main 288 288 P_____________ EP011999 14.3425 -101.093 TS 37 1003 0 16 291
1999169N13264 1999 39 EP MM ADRIAN 1999-06-19 00:00:00 TS 14.7333 -101.900 40 1003 hurdat_epa main 303 293 O_____________ hurdat_epa EP011999 14.6000 -101.800 TS 40 1003 0 14 291
1999169N13264 1999 39 EP MM ADRIAN 1999-06-19 03:00:00 TS 14.9595 -102.508 main 297 297 P_____________ EP011999 14.8497 -102.450 TS 45 1001 0 12 290
1999169N13264 1999 39 EP MM ADRIAN 1999-06-19 06:00:00 TS 15.1667 -103.100 50 1000 hurdat_epa main 313 313 O_____________ hurdat_epa EP011999 15.1000 -103.100 TS 50 1000 0 13 288
1999169N13264 1999 39 EP MM ADRIAN 1999-06-19 09:00:00 TS 15.3784 -103.819 main 316 316 P_____________ EP011999 15.3500 -103.808 TS 52 997 0 15 287
1999169N13264 1999 39 EP MM ADRIAN 1999-06-19 12:00:00 TS 15.6000 -104.533 55 995 hurdat_epa main 320 317 O_____________ hurdat_epa EP011999 15.6000 -104.500 TS 55 995 0 14 290
1999169N13264 1999 39 EP MM ADRIAN 1999-06-19 15:00:00 TS 15.8372 -105.144 main 327 323 P_____________ EP011999 15.8423 -105.123 TS 57 992 0 12 294
1999169N13264 1999 39 EP MM ADRIAN 1999-06-19 18:00:00 TS 16.1000 -105.700 60 990 hurdat_epa main 339 338 O_____________ hurdat_epa EP011999 16.1000 -105.700 TS 60 990 0 12 298
1999169N13264 1999 39 EP MM ADRIAN 1999-06-19 21:00:00 TS 16.3947 -106.233 main 346 341 P_____________ EP011999 16.3999 -106.265 TS 62 987 0 12 300
1999169N13264 1999 39 EP MM ADRIAN 1999-06-20 00:00:00 TS 16.7000 -106.767 65 985 hurdat_epa main 350 348 O_____________ hurdat_epa EP011999 16.7000 -106.800 HU 65 985 1 12 299
1999169N13264 1999 39 EP MM ADRIAN 1999-06-20 03:00:00 TS 17.0009 -107.357 main 368 368 P_____________ EP011999 16.9648 -107.308 HU 67 982 1 13 297
1999169N13264 1999 39 EP MM ADRIAN 1999-06-20 06:00:00 TS 17.2667 -107.933 70 980 hurdat_epa main 383 383 O_____________ hurdat_epa EP011999 17.2000 -107.800 HU 70 980 1 11 295
1999169N13264 1999 39 EP MM ADRIAN 1999-06-20 09:00:00 TS 17.4773 -108.442 main 409 409 P_____________ EP011999 17.4224 -108.308 HU 72 978 1 10 292
1999169N13264 1999 39 EP MM ADRIAN 1999-06-20 12:00:00 TS 17.6333 -108.900 75 976 hurdat_epa main 446 446 O_____________ hurdat_epa EP011999 17.6000 -108.800 HU 75 976 1 9 288
1999169N13264 1999 39 EP MM ADRIAN 1999-06-20 15:00:00 TS 17.7432 -109.327 main 475 475 P_____________ EP011999 17.7073 -109.258 HU 80 974 1 8 284
1999169N13264 1999 39 EP MM ADRIAN 1999-06-20 18:00:00 TS 17.8333 -109.733 85 973 hurdat_epa main 505 505 O_____________ hurdat_epa EP011999 17.8000 -109.700 HU 85 973 2 8 284
1999169N13264 1999 39 EP MM ADRIAN 1999-06-20 21:00:00 TS 17.9475 -110.165 main 547 539 P_____________ EP011999 17.9500 -110.165 HU 85 973 2 8 286
1999169N13264 1999 39 EP MM ADRIAN 1999-06-21 00:00:00 TS 18.0667 -110.567 85 973 hurdat_epa main 540 532 O_____________ hurdat_epa EP011999 18.1000 -110.600 HU 85 973 2 8 289
1999169N13264 1999 39 EP MM ADRIAN 1999-06-21 03:00:00 TS 18.1883 -110.916 main 533 527 P_____________ EP011999 18.2074 -110.988 HU 82 975 1 6 291
1999169N13264 1999 39 EP MM ADRIAN 1999-06-21 06:00:00 TS 18.3000 -111.200 80 977 hurdat_epa main 529 521 O_____________ hurdat_epa EP011999 18.3000 -111.300 HU 80 977 1 5 293
1999169N13264 1999 39 EP MM ADRIAN 1999-06-21 09:00:00 TS 18.3908 -111.425 main 523 519 P_____________ EP011999 18.4074 -111.538 HU 75 981 1 4 294
1999169N13264 1999 39 EP MM ADRIAN 1999-06-21 12:00:00 TS 18.4667 -111.600 70 986 hurdat_epa main 519 519 O_____________ hurdat_epa EP011999 18.5000 -111.700 HU 70 986 1 3 295
1999169N13264 1999 39 EP MM ADRIAN 1999-06-21 15:00:00 TS 18.5383 -111.753 main 526 515 P_____________ EP011999 18.5574 -111.808 HU 65 990 1 3 295
1999169N13264 1999 39 EP MM ADRIAN 1999-06-21 18:00:00 TS 18.6000 -111.900 60 994 hurdat_epa main 519 513 O_____________ hurdat_epa EP011999 18.6000 -111.900 TS 60 994 0 3 292
1999169N13264 1999 39 EP MM ADRIAN 1999-06-21 21:00:00 TS 18.6625 -112.073 main 517 517 P_____________ EP011999 18.6575 -112.035 TS 52 996 0 4 286
1999169N13264 1999 39 EP MM ADRIAN 1999-06-22 00:00:00 TS 18.7000 -112.267 45 998 hurdat_epa main 526 526 O_____________ hurdat_epa EP011999 18.7000 -112.200 TS 45 998 0 4 274
1999169N13264 1999 39 EP MM ADRIAN 1999-06-22 03:00:00 TS 18.6909 -112.493 main 536 536 P_____________ EP011999 18.7075 -112.400 TS 40 999 0 4 265
1999169N13264 1999 39 EP MM ADRIAN 1999-06-22 06:00:00 TS 18.6667 -112.700 35 1000 hurdat_epa main 547 547 O_____________ hurdat_epa EP011999 18.7000 -112.600 TS 35 1000 0 3 264
1999169N13264 1999 39 EP MM ADRIAN 1999-06-22 09:00:00 TS 18.6541 -112.837 main 552 552 P_____________ EP011999 18.6925 -112.765 TS 32 1001 -1 2 270
1999169N13264 1999 39 EP MM ADRIAN 1999-06-22 12:00:00 TS 18.6667 -112.933 30 1002 hurdat_epa main 558 558 O_____________ hurdat_epa EP011999 18.7000 -112.900 TD 30 1002 -1 2 291
1999169N13264 1999 39 EP MM ADRIAN 1999-06-22 15:00:00 TS 18.7208 -113.018 main 563 560 P_____________ EP011999 18.7400 -113.007 TD 27 1003 -1 2 310
1999169N13264 1999 39 EP MM ADRIAN 1999-06-22 18:00:00 TS 18.8000 -113.100 25 1004 hurdat_epa main 560 O_____________ hurdat_epa EP011999 18.8000 -113.100 TD 25 1004 -1 2 315

About IBTrACS Database

This database is a web-friendly format of International Best Track Archive for Climate Stewardship (IBTrACS), a global best track data archive curated by NOAA dating back to 1842.

Updated: 2021-10-21